Time;durP1;ratioP1;P1;durP2;ratioP2;P2;SDS_P1;SDS_P2;PMS_P1;PMS_P2;Temp;Humidity;BMP_temperature;BMP_pressure;BME280_temperature;BME280_humidity;BME280_pressure;Samples;Min_cycle;Max_cycle;Signal;HPM_P1;HPM_P2
2024/01/04 00:00:57;;;;;;;0.40;0.10;;;9.40;99.90;;;;;;4972202;28;20279;-61
2024/01/04 00:03:26;;;;;;;1.08;0.40;;;9.40;99.90;;;;;;4971627;28;20217;-61
2024/01/04 00:05:54;;;;;;;1.55;0.10;;;9.40;99.90;;;;;;4983487;28;20658;-61
2024/01/04 00:08:22;;;;;;;1.27;0.10;;;9.40;99.90;;;;;;4971412;28;20665;-60
2024/01/04 00:10:50;;;;;;;0.57;0.17;;;9.40;99.90;;;;;;4972232;28;20315;-60
2024/01/04 00:13:19;;;;;;;0.35;0.20;;;9.40;99.90;;;;;;4973066;28;20353;-61
2024/01/04 00:15:47;;;;;;;0.30;0.10;;;9.40;99.90;;;;;;4972386;28;20300;-60
2024/01/04 00:18:15;;;;;;;0.17;0.10;;;9.40;99.90;;;;;;4971725;28;20725;-61
2024/01/04 00:20:43;;;;;;;2.72;0.20;;;9.40;99.90;;;;;;4972083;28;20666;-61
2024/01/04 00:23:11;;;;;;;2.45;0.10;;;9.40;99.90;;;;;;4971992;28;20235;-61
2024/01/04 00:25:39;;;;;;;1.88;0.13;;;9.40;99.90;;;;;;4972306;28;20288;-61
2024/01/04 00:28:07;;;;;;;0.30;0.20;;;9.40;99.90;;;;;;4972346;28;20251;-61
2024/01/04 00:30:36;;;;;;;1.55;0.20;;;9.50;99.90;;;;;;4975354;28;20260;-61
2024/01/04 00:33:05;;;;;;;0.20;0.20;;;9.40;99.90;;;;;;4975740;28;20667;-61
2024/01/04 00:35:33;;;;;;;0.10;0.10;;;9.40;99.90;;;;;;4975430;28;20224;-61
2024/01/04 00:38:01;;;;;;;0.38;0.10;;;9.40;99.90;;;;;;4975855;28;20217;-61
2024/01/04 00:40:29;;;;;;;0.75;0.10;;;9.40;99.90;;;;;;4975308;28;20213;-62
2024/01/04 00:42:57;;;;;;;1.80;0.20;;;9.40;99.90;;;;;;4975590;28;20225;-61
2024/01/04 00:45:25;;;;;;;0.13;0.10;;;9.40;99.90;;;;;;4974365;28;20228;-61
2024/01/04 00:47:54;;;;;;;0.98;0.10;;;9.40;99.90;;;;;;4975635;28;20243;-61
2024/01/04 00:50:22;;;;;;;1.02;0.17;;;9.40;99.90;;;;;;4975460;28;20208;-60
2024/01/04 00:52:50;;;;;;;0.68;0.05;;;9.40;99.90;;;;;;4972228;28;20259;-60
2024/01/04 00:55:32;;;;;;;0.90;0.10;;;9.40;99.90;;;;;;4974693;28;20571;-60
2024/01/04 00:58:02;;;;;;;0.38;0.05;;;9.40;99.90;;;;;;4971087;28;20918;-61
2024/01/04 01:00:30;;;;;;;0.45;0.10;;;9.40;99.90;;;;;;4975096;28;20288;-61
2024/01/04 01:02:59;;;;;;;0.10;0.03;;;9.40;99.90;;;;;;4970581;28;20288;-61
2024/01/04 01:05:27;;;;;;;0.10;0.10;;;9.40;99.90;;;;;;4972122;28;20212;-61
2024/01/04 01:07:55;;;;;;;0.30;0.10;;;9.40;99.90;;;;;;4975136;28;20271;-60
2024/01/04 01:10:23;;;;;;;0.10;0.10;;;9.40;99.90;;;;;;4974353;28;20236;-60
2024/01/04 01:12:51;;;;;;;0.40;0.10;;;9.30;99.90;;;;;;4974835;28;20228;-60
2024/01/04 01:15:19;;;;;;;0.30;0.20;;;9.30;99.90;;;;;;4975129;28;20639;-61
2024/01/04 01:17:47;;;;;;;0.13;0.10;;;9.30;99.90;;;;;;4974887;28;20215;-59
2024/01/04 01:20:16;;;;;;;0.25;0.10;;;9.20;99.90;;;;;;4974828;28;20232;-59
2024/01/04 01:22:44;;;;;;;0.13;0.13;;;9.30;99.90;;;;;;4974745;28;20225;-58
2024/01/04 01:25:12;;;;;;;0.85;0.20;;;9.20;99.90;;;;;;4974143;28;20312;-59
2024/01/04 01:27:40;;;;;;;1.98;0.22;;;9.20;99.90;;;;;;4974668;28;20713;-57
2024/01/04 01:30:09;;;;;;;1.30;0.03;;;9.20;99.90;;;;;;4974994;28;20298;-59
2024/01/04 01:32:37;;;;;;;0.73;0.10;;;9.20;99.90;;;;;;4974895;28;20232;-58
2024/01/04 01:35:06;;;;;;;0.10;0.10;;;9.20;99.90;;;;;;4974425;28;20638;-58
2024/01/04 01:37:35;;;;;;;0.35;0.00;;;9.20;99.90;;;;;;4973968;28;20205;-58
2024/01/04 01:40:03;;;;;;;0.32;0.10;;;9.20;99.90;;;;;;4970967;28;20209;-58
2024/01/04 01:42:31;;;;;;;1.88;0.20;;;9.20;99.90;;;;;;4974972;28;20259;-57
2024/01/04 01:45:00;;;;;;;0.38;0.13;;;9.30;99.90;;;;;;4974227;28;20252;-58
2024/01/04 01:47:28;;;;;;;0.10;0.10;;;9.30;99.90;;;;;;4974547;28;20205;-58
2024/01/04 01:49:56;;;;;;;0.98;0.10;;;9.30;99.90;;;;;;4973963;28;20212;-59
2024/01/04 01:52:24;;;;;;;0.13;0.13;;;9.20;99.90;;;;;;4966645;28;20237;-58
2024/01/04 01:54:53;;;;;;;0.30;0.20;;;9.20;99.90;;;;;;4969570;28;20769;-60
2024/01/04 01:57:21;;;;;;;0.98;0.20;;;9.20;99.90;;;;;;4972057;28;20295;-57
2024/01/04 01:59:49;;;;;;;0.98;0.20;;;9.20;99.90;;;;;;4974489;28;20254;-59
2024/01/04 02:02:17;;;;;;;3.58;0.20;;;9.20;99.90;;;;;;4974096;28;20232;-58
2024/01/04 02:04:45;;;;;;;0.80;0.30;;;9.20;99.90;;;;;;4974404;28;20722;-59
2024/01/04 02:07:13;;;;;;;1.13;0.20;;;9.20;99.90;;;;;;4971773;28;20212;-58
2024/01/04 02:09:41;;;;;;;0.65;0.10;;;9.20;99.90;;;;;;4981353;28;20205;-58
2024/01/04 02:12:13;;;;;;;0.50;0.32;;;9.20;99.90;;;;;;4972745;28;20232;-59
2024/01/04 02:14:41;;;;;;;2.03;0.13;;;9.10;99.90;;;;;;4969108;28;20636;-57
2024/01/04 02:17:09;;;;;;;1.15;0.20;;;9.10;99.90;;;;;;4972831;28;20205;-58
2024/01/04 02:19:37;;;;;;;1.88;0.20;;;9.10;99.90;;;;;;4973473;28;20233;-57
2024/01/04 02:22:05;;;;;;;1.38;0.10;;;9.10;99.90;;;;;;4972925;28;20231;-59
2024/01/04 02:24:34;;;;;;;0.73;0.22;;;9.10;99.90;;;;;;4979976;28;20312;-59
2024/01/04 02:27:02;;;;;;;0.68;0.20;;;9.10;99.90;;;;;;4972494;28;20330;-58
2024/01/04 02:29:30;;;;;;;3.10;0.30;;;9.10;99.90;;;;;;4976763;28;20585;-58
2024/01/04 02:31:57;;;;;;;1.05;0.20;;;9.10;99.90;;;;;;4973575;28;20765;-58
2024/01/04 02:34:25;;;;;;;0.20;0.13;;;9.10;99.90;;;;;;4973777;28;20291;-58
2024/01/04 02:36:53;;;;;;;0.65;0.20;;;9.10;99.90;;;;;;4972721;28;20304;-57
2024/01/04 02:39:21;;;;;;;0.60;0.10;;;9.10;99.90;;;;;;4972592;28;20689;-59
2024/01/04 02:41:50;;;;;;;0.70;0.10;;;9.10;99.90;;;;;;4972821;28;20225;-58
2024/01/04 02:44:18;;;;;;;1.45;0.32;;;9.10;99.90;;;;;;4972768;28;20228;-59
2024/01/04 02:46:48;;;;;;;1.02;0.30;;;9.10;99.90;;;;;;4966501;28;20696;-58
2024/01/04 02:49:15;;;;;;;0.75;0.10;;;9.10;99.90;;;;;;4973217;28;20566;-58
2024/01/04 02:51:44;;;;;;;0.75;0.10;;;9.10;99.90;;;;;;4964780;28;20728;-58
2024/01/04 02:54:12;;;;;;;1.30;0.20;;;9.10;99.90;;;;;;4973820;28;20200;-58
2024/01/04 02:56:40;;;;;;;1.92;0.20;;;9.10;99.90;;;;;;4973388;28;20209;-58
2024/01/04 02:59:09;;;;;;;0.13;0.13;;;9.10;99.90;;;;;;4972991;28;20240;-59
2024/01/04 03:01:37;;;;;;;1.48;0.20;;;9.10;99.90;;;;;;4967689;28;20252;-59
2024/01/04 03:04:05;;;;;;;1.10;0.22;;;9.00;99.90;;;;;;4973165;28;20718;-59
2024/01/04 03:06:34;;;;;;;1.10;0.10;;;9.00;99.90;;;;;;4973223;28;20258;-58
2024/01/04 03:09:02;;;;;;;0.73;0.30;;;9.00;99.90;;;;;;4972372;28;20205;-57
2024/01/04 03:11:30;;;;;;;1.50;0.28;;;9.00;99.90;;;;;;4972325;28;20621;-59
2024/01/04 03:13:58;;;;;;;2.67;0.20;;;9.00;99.90;;;;;;4973257;28;20690;-58
2024/01/04 03:16:28;;;;;;;1.35;0.20;;;9.00;99.90;;;;;;4973024;28;20201;-59
2024/01/04 03:18:56;;;;;;;0.10;0.10;;;9.00;99.90;;;;;;4970239;28;20208;-58
2024/01/04 03:21:24;;;;;;;0.75;0.10;;;9.00;99.90;;;;;;4972858;28;20232;-58
2024/01/04 03:23:52;;;;;;;0.10;0.10;;;9.00;99.90;;;;;;4973252;28;20209;-58
2024/01/04 03:26:20;;;;;;;0.20;0.10;;;9.00;99.90;;;;;;4972892;28;20296;-58
2024/01/04 03:28:48;;;;;;;0.20;0.10;;;9.10;99.90;;;;;;4972909;28;20232;-59
2024/01/04 03:31:16;;;;;;;0.10;0.10;;;9.10;99.90;;;;;;4972590;28;20259;-59
2024/01/04 03:33:45;;;;;;;0.70;0.10;;;9.10;99.90;;;;;;4972827;28;20248;-59
2024/01/04 03:36:14;;;;;;;0.57;0.10;;;9.10;99.90;;;;;;4972467;28;20718;-58
2024/01/04 03:38:42;;;;;;;0.15;0.10;;;9.10;99.90;;;;;;4972549;28;20209;-60
2024/01/04 03:41:10;;;;;;;0.08;0.05;;;9.10;99.90;;;;;;4968046;28;20225;-58
2024/01/04 03:43:38;;;;;;;0.13;0.10;;;9.10;99.90;;;;;;4972783;28;20752;-59
2024/01/04 03:46:06;;;;;;;0.20;0.10;;;9.10;99.90;;;;;;4972870;28;20267;-59
2024/01/04 03:48:34;;;;;;;0.10;0.10;;;9.10;99.90;;;;;;4972848;28;20213;-57
2024/01/04 03:51:04;;;;;;;1.08;0.43;;;9.10;99.90;;;;;;4972450;28;20229;-57
2024/01/04 03:53:32;;;;;;;0.50;0.10;;;9.10;99.90;;;;;;4972869;28;20211;-57
2024/01/04 03:56:00;;;;;;;0.40;0.20;;;9.10;99.90;;;;;;4977751;28;20686;-57
2024/01/04 03:58:27;;;;;;;1.05;0.13;;;9.10;99.90;;;;;;4971334;28;20209;-58
2024/01/04 04:00:55;;;;;;;1.05;0.10;;;9.20;99.90;;;;;;4972508;28;20283;-58
2024/01/04 04:03:23;;;;;;;3.03;0.10;;;9.20;99.90;;;;;;4972587;28;20211;-58
2024/01/04 04:05:51;;;;;;;0.65;0.20;;;9.20;99.90;;;;;;4974360;28;20256;-58
2024/01/04 04:08:20;;;;;;;0.20;0.20;;;9.10;99.90;;;;;;4974547;28;20655;-58
2024/01/04 04:10:48;;;;;;;0.75;0.17;;;9.10;99.90;;;;;;4972189;28;20230;-58
2024/01/04 04:13:17;;;;;;;2.13;0.20;;;9.10;99.90;;;;;;4973945;28;20721;-58
2024/01/04 04:15:45;;;;;;;0.25;0.10;;;9.00;99.90;;;;;;4976451;28;20259;-59
2024/01/04 04:18:13;;;;;;;1.05;0.10;;;9.00;99.90;;;;;;4976148;28;20298;-61
2024/01/04 04:20:41;;;;;;;0.82;0.20;;;9.00;99.90;;;;;;4975121;28;20259;-59
2024/01/04 04:23:09;;;;;;;0.90;0.17;;;9.00;99.90;;;;;;4974329;28;20200;-60
2024/01/04 04:25:39;;;;;;;0.30;0.10;;;9.00;99.90;;;;;;4975380;28;20224;-60
2024/01/04 04:28:06;;;;;;;0.35;0.00;;;8.90;99.90;;;;;;4975990;28;20302;-61
2024/01/04 04:30:34;;;;;;;0.70;0.13;;;8.90;99.90;;;;;;4972912;28;20208;-61
2024/01/04 04:33:02;;;;;;;0.32;0.10;;;8.80;99.90;;;;;;4975394;28;20216;-61
2024/01/04 04:35:30;;;;;;;0.47;0.10;;;8.90;99.90;;;;;;4975381;28;20201;-61
2024/01/04 04:37:59;;;;;;;0.15;0.10;;;8.90;99.90;;;;;;4975082;28;20259;-61
2024/01/04 04:40:26;;;;;;;0.20;0.20;;;8.80;99.90;;;;;;4975683;28;20219;-60
2024/01/04 04:42:56;;;;;;;1.55;0.10;;;8.90;99.90;;;;;;4975581;28;20236;-61
2024/01/04 04:45:24;;;;;;;1.08;0.20;;;8.80;99.90;;;;;;4975668;28;20260;-59
2024/01/04 04:47:51;;;;;;;0.00;0.00;;;8.90;99.90;;;;;;4975772;28;20216;-60
2024/01/04 04:50:19;;;;;;;0.10;0.10;;;8.90;99.90;;;;;;4975281;28;20213;-60
2024/01/04 04:52:47;;;;;;;0.17;0.10;;;8.90;99.90;;;;;;4975714;28;20228;-61
2024/01/04 04:55:15;;;;;;;0.30;0.10;;;8.80;99.90;;;;;;4971949;28;20292;-61
2024/01/04 04:57:43;;;;;;;1.45;0.10;;;8.90;99.90;;;;;;4975233;28;20205;-61
2024/01/04 05:00:13;;;;;;;0.98;0.10;;;8.90;99.90;;;;;;4974701;28;20248;-60
2024/01/04 05:02:41;;;;;;;0.17;0.10;;;8.90;99.90;;;;;;4975376;28;20310;-60
2024/01/04 05:05:09;;;;;;;0.20;0.20;;;8.90;99.90;;;;;;4972946;28;20217;-60
2024/01/04 05:07:37;;;;;;;0.30;0.20;;;9.00;99.90;;;;;;4973806;28;20304;-61
2024/01/04 05:10:06;;;;;;;0.73;0.20;;;9.00;99.90;;;;;;4975533;28;20304;-61
2024/01/04 05:12:34;;;;;;;1.17;0.20;;;9.00;99.90;;;;;;4974803;28;20268;-60
2024/01/04 05:15:01;;;;;;;2.20;0.20;;;9.00;99.90;;;;;;4974774;28;20236;-60
2024/01/04 05:17:31;;;;;;;0.55;0.13;;;9.00;99.90;;;;;;4974693;28;20212;-60
2024/01/04 05:19:59;;;;;;;0.35;0.20;;;9.00;99.90;;;;;;4975067;28;20643;-60
2024/01/04 05:22:26;;;;;;;0.47;0.20;;;9.00;99.90;;;;;;4974431;28;20647;-61
2024/01/04 05:24:54;;;;;;;0.10;0.10;;;9.00;99.90;;;;;;4975353;28;20232;-60
2024/01/04 05:27:22;;;;;;;0.90;0.30;;;9.10;99.90;;;;;;4974621;28;20295;-59
2024/01/04 05:29:50;;;;;;;2.00;0.20;;;9.10;99.90;;;;;;4977240;28;20702;-59
2024/01/04 05:32:18;;;;;;;0.60;0.20;;;9.10;99.90;;;;;;4973170;28;20256;-61
2024/01/04 05:34:47;;;;;;;1.38;0.32;;;9.10;99.90;;;;;;4980352;28;20223;-60
2024/01/04 05:37:15;;;;;;;0.10;0.10;;;9.10;99.90;;;;;;4974258;28;20287;-61
2024/01/04 05:39:43;;;;;;;1.23;0.20;;;9.20;99.90;;;;;;4973630;28;20625;-60
2024/01/04 05:42:12;;;;;;;1.25;0.28;;;9.20;99.90;;;;;;4971133;28;20260;-59
2024/01/04 05:44:40;;;;;;;0.15;0.15;;;9.20;99.90;;;;;;4974393;28;20209;-61
2024/01/04 05:47:08;;;;;;;1.75;0.20;;;9.10;99.90;;;;;;4974476;28;20225;-60
2024/01/04 05:49:36;;;;;;;0.47;0.22;;;9.10;99.90;;;;;;4974880;28;20291;-61
2024/01/04 05:52:06;;;;;;;1.55;0.20;;;9.20;99.90;;;;;;4974345;28;20228;-61
2024/01/04 05:54:34;;;;;;;1.75;0.20;;;9.20;99.90;;;;;;4974550;28;20212;-60
2024/01/04 05:57:02;;;;;;;1.85;0.20;;;9.20;99.90;;;;;;4961462;28;20734;-61
2024/01/04 05:59:30;;;;;;;2.10;0.35;;;9.10;99.90;;;;;;4974125;28;20275;-61
2024/01/04 06:01:57;;;;;;;1.80;0.20;;;9.10;99.90;;;;;;4968400;28;20247;-60
2024/01/04 06:04:25;;;;;;;0.73;0.30;;;9.10;99.90;;;;;;4973508;28;20236;-60
2024/01/04 06:06:54;;;;;;;1.15;0.20;;;9.00;99.90;;;;;;4972766;28;20315;-61
2024/01/04 06:09:23;;;;;;;0.43;0.30;;;9.00;99.90;;;;;;4973883;28;20208;-61
2024/01/04 06:11:51;;;;;;;0.95;0.22;;;9.00;99.90;;;;;;4970325;28;20608;-61
2024/01/04 06:14:20;;;;;;;1.92;0.32;;;9.00;99.90;;;;;;4978885;28;20215;-60
2024/01/04 06:16:47;;;;;;;2.58;0.30;;;9.00;99.90;;;;;;4973984;28;20244;-60
2024/01/04 06:19:15;;;;;;;0.20;0.20;;;9.00;99.90;;;;;;4973461;28;20679;-59
2024/01/04 06:21:44;;;;;;;3.13;0.40;;;8.90;99.90;;;;;;4977255;28;20225;-60
2024/01/04 06:24:11;;;;;;;1.08;0.40;;;8.90;99.90;;;;;;4978062;28;20278;-60
2024/01/04 06:26:41;;;;;;;0.70;0.30;;;8.90;99.90;;;;;;4974382;28;20220;-61
2024/01/04 06:29:09;;;;;;;1.10;0.30;;;8.90;99.90;;;;;;4979378;28;20219;-60
2024/01/04 06:31:36;;;;;;;0.90;0.52;;;8.90;99.90;;;;;;4975163;28;20319;-62
2024/01/04 06:34:04;;;;;;;0.30;0.30;;;9.00;99.90;;;;;;4973678;28;20291;-61
2024/01/04 06:36:32;;;;;;;1.13;0.15;;;9.00;99.90;;;;;;4972174;28;20671;-60
2024/01/04 06:39:00;;;;;;;0.20;0.20;;;9.10;99.90;;;;;;4967148;28;20205;-61
2024/01/04 06:41:29;;;;;;;1.70;0.40;;;9.20;99.90;;;;;;4970928;28;20224;-60
2024/01/04 06:43:59;;;;;;;0.45;0.20;;;9.20;99.90;;;;;;4971614;28;20224;-62
2024/01/04 06:46:27;;;;;;;1.55;0.20;;;9.20;99.90;;;;;;4972939;28;20260;-60
2024/01/04 06:48:55;;;;;;;1.77;0.30;;;9.20;99.90;;;;;;4973117;28;20262;-61
2024/01/04 06:51:24;;;;;;;0.35;0.22;;;9.20;99.90;;;;;;4971876;28;20669;-61
2024/01/04 06:53:52;;;;;;;0.20;0.20;;;9.20;99.90;;;;;;4973285;28;20239;-60
2024/01/04 06:56:20;;;;;;;0.82;0.50;;;9.20;99.90;;;;;;4971810;28;20221;-60
2024/01/04 06:58:48;;;;;;;0.77;0.20;;;9.20;99.90;;;;;;4972791;28;20208;-60
2024/01/04 07:01:19;;;;;;;1.52;0.30;;;9.20;99.90;;;;;;4973007;28;20256;-63
2024/01/04 07:03:47;;;;;;;6.38;0.60;;;9.20;99.90;;;;;;4972796;28;21044;-63
2024/01/04 07:06:15;;;;;;;2.78;0.20;;;9.20;99.90;;;;;;4973160;28;20232;-63
2024/01/04 07:08:43;;;;;;;0.25;0.20;;;9.20;99.90;;;;;;4973456;28;20221;-63
2024/01/04 07:11:11;;;;;;;0.40;0.30;;;9.20;99.90;;;;;;4972155;28;20243;-63
2024/01/04 07:13:39;;;;;;;0.20;0.20;;;9.10;99.90;;;;;;4970622;28;20201;-63
2024/01/04 07:16:07;;;;;;;1.60;0.20;;;9.10;99.90;;;;;;4972737;28;20204;-63
2024/01/04 07:18:36;;;;;;;1.38;0.40;;;9.20;99.90;;;;;;4971765;28;20232;-63
2024/01/04 07:21:05;;;;;;;0.60;0.20;;;9.10;99.90;;;;;;4972736;28;20266;-63
2024/01/04 07:23:33;;;;;;;0.25;0.22;;;9.20;99.90;;;;;;4971554;28;20217;-63
2024/01/04 07:26:01;;;;;;;1.48;0.20;;;9.20;99.90;;;;;;4965048;28;20569;-63
2024/01/04 07:28:29;;;;;;;0.88;0.22;;;9.20;99.90;;;;;;4972332;28;20275;-63
2024/01/04 07:30:57;;;;;;;3.55;0.20;;;9.20;99.90;;;;;;4972400;28;20831;-63
2024/01/04 07:33:26;;;;;;;1.00;0.30;;;9.20;99.90;;;;;;4968480;28;20769;-63
2024/01/04 07:35:55;;;;;;;0.10;0.10;;;9.20;99.90;;;;;;4966547;28;20296;-63
2024/01/04 07:38:23;;;;;;;1.02;0.10;;;9.20;99.90;;;;;;4970254;28;20255;-63
2024/01/04 07:40:51;;;;;;;0.00;0.00;;;9.20;99.90;;;;;;4972035;28;20599;-63
2024/01/04 07:43:20;;;;;;;0.63;0.20;;;9.20;99.90;;;;;;4971270;28;20676;-63
2024/01/04 07:45:48;;;;;;;0.30;0.10;;;9.20;99.90;;;;;;4971512;28;20582;-63
2024/01/04 07:48:16;;;;;;;0.10;0.10;;;9.20;99.90;;;;;;4971938;28;20225;-63
2024/01/04 07:50:44;;;;;;;0.38;0.10;;;9.20;99.90;;;;;;4969900;28;20212;-63
2024/01/04 07:53:13;;;;;;;1.25;0.10;;;9.20;99.90;;;;;;4970476;28;20244;-63
2024/01/04 07:55:41;;;;;;;1.55;0.20;;;9.20;99.90;;;;;;4971680;28;20232;-63
2024/01/04 07:58:09;;;;;;;0.85;0.20;;;9.20;99.90;;;;;;4971738;28;20283;-63
2024/01/04 08:00:37;;;;;;;0.03;0.00;;;9.20;99.90;;;;;;4972108;28;20670;-67
2024/01/04 08:03:06;;;;;;;0.10;0.10;;;9.20;99.90;;;;;;4972116;28;20205;-62
2024/01/04 08:05:34;;;;;;;0.10;0.10;;;9.20;99.90;;;;;;4968105;28;20224;-63
2024/01/04 08:08:02;;;;;;;0.47;0.15;;;9.20;99.90;;;;;;4968951;28;20319;-62
2024/01/04 08:10:31;;;;;;;0.00;0.00;;;9.20;99.90;;;;;;4970993;28;20322;-62
2024/01/04 08:12:59;;;;;;;1.23;0.20;;;9.20;99.90;;;;;;4971361;28;20209;-62
2024/01/04 08:15:28;;;;;;;0.82;0.25;;;9.20;99.90;;;;;;4971419;28;20236;-63
2024/01/04 08:17:56;;;;;;;0.77;0.20;;;9.20;99.90;;;;;;4969289;28;20205;-62
2024/01/04 08:20:24;;;;;;;0.03;0.03;;;9.20;99.90;;;;;;4970549;28;20209;-62
2024/01/04 08:22:52;;;;;;;0.22;0.10;;;9.20;99.90;;;;;;4970946;28;20275;-63
2024/01/04 08:25:20;;;;;;;0.38;0.38;;;9.20;99.90;;;;;;4971204;28;20264;-62
2024/01/04 08:27:49;;;;;;;0.10;0.10;;;9.20;99.90;;;;;;4970493;28;20719;-63
2024/01/04 08:30:17;;;;;;;0.20;0.10;;;9.20;99.90;;;;;;4971333;28;20252;-63
2024/01/04 08:32:45;;;;;;;1.85;0.30;;;9.20;99.90;;;;;;4971197;28;20232;-62
2024/01/04 08:35:15;;;;;;;0.95;0.20;;;9.20;99.90;;;;;;4971073;28;20209;-62
2024/01/04 08:37:45;;;;;;;0.47;0.20;;;9.20;99.90;;;;;;4970603;28;20232;-62
2024/01/04 08:40:13;;;;;;;0.52;0.20;;;9.20;99.90;;;;;;4971249;28;20701;-63
2024/01/04 08:42:41;;;;;;;3.97;0.30;;;9.20;99.90;;;;;;4971661;28;20220;-62
2024/01/04 08:45:11;;;;;;;1.75;0.20;;;9.20;99.90;;;;;;4971607;28;20193;-63
2024/01/04 08:47:40;;;;;;;0.60;0.30;;;9.30;99.90;;;;;;4970745;28;20220;-63
2024/01/04 08:50:09;;;;;;;1.00;0.20;;;9.30;99.90;;;;;;4972026;28;20586;-63
2024/01/04 08:52:37;;;;;;;0.55;0.20;;;9.30;99.90;;;;;;4972548;28;20236;-63
2024/01/04 08:55:06;;;;;;;0.57;0.17;;;9.30;99.90;;;;;;4974102;28;20241;-63
2024/01/04 08:57:34;;;;;;;0.73;0.13;;;9.30;99.90;;;;;;4975011;28;20196;-62
2024/01/04 09:00:04;;;;;;;0.32;0.10;;;9.30;99.90;;;;;;4974474;28;20680;-63
2024/01/04 09:02:33;;;;;;;0.20;0.20;;;9.30;99.90;;;;;;4974102;28;20270;-61
2024/01/04 09:05:01;;;;;;;0.90;0.10;;;9.30;99.90;;;;;;4974621;28;20353;-62
2024/01/04 09:07:30;;;;;;;2.28;0.25;;;9.30;99.90;;;;;;4973960;28;20224;-62
2024/01/04 09:09:57;;;;;;;0.75;0.10;;;9.30;99.90;;;;;;4977131;28;20236;-62
2024/01/04 09:12:26;;;;;;;0.10;0.10;;;9.30;99.90;;;;;;4973307;28;20252;-63
2024/01/04 09:14:54;;;;;;;0.10;0.10;;;9.40;99.90;;;;;;4974470;28;20591;-61
2024/01/04 09:17:22;;;;;;;2.13;0.17;;;9.40;99.90;;;;;;4974121;28;20710;-61
2024/01/04 09:19:52;;;;;;;0.20;0.10;;;9.40;99.90;;;;;;4974476;28;20408;-61
2024/01/04 09:22:20;;;;;;;1.00;0.20;;;9.40;99.90;;;;;;4974105;28;20228;-61
2024/01/04 09:24:48;;;;;;;0.20;0.20;;;9.40;99.90;;;;;;4971212;28;20212;-61
2024/01/04 09:27:16;;;;;;;0.22;0.10;;;9.40;99.90;;;;;;4973072;28;20207;-60
2024/01/04 09:29:47;;;;;;;1.90;0.10;;;9.50;99.90;;;;;;4974174;28;20228;-60
2024/01/04 09:32:15;;;;;;;1.90;0.17;;;9.50;99.90;;;;;;4977586;28;20323;-60
2024/01/04 09:34:42;;;;;;;1.42;0.08;;;9.50;99.90;;;;;;4979062;28;20259;-61
2024/01/04 09:37:12;;;;;;;0.10;0.10;;;9.50;99.90;;;;;;4974483;28;20205;-61
2024/01/04 09:39:40;;;;;;;0.82;0.20;;;9.40;99.90;;;;;;4976650;28;20562;-60
2024/01/04 09:42:09;;;;;;;0.25;0.13;;;9.40;99.90;;;;;;4973976;28;20675;-60
2024/01/04 09:44:37;;;;;;;0.50;0.20;;;9.50;99.90;;;;;;4973738;28;20340;-61
2024/01/04 09:47:08;;;;;;;0.32;0.15;;;9.40;99.90;;;;;;4973318;28;20244;-62
2024/01/04 09:49:36;;;;;;;0.95;0.32;;;9.50;99.90;;;;;;4973805;28;20309;-61
2024/01/04 09:52:05;;;;;;;0.73;0.25;;;9.40;99.90;;;;;;4970695;28;20232;-61
2024/01/04 09:54:34;;;;;;;1.65;0.20;;;9.40;99.90;;;;;;4978272;28;20200;-61
2024/01/04 09:57:02;;;;;;;2.55;0.40;;;9.40;99.90;;;;;;4973414;28;20292;-61
2024/01/04 09:59:31;;;;;;;1.85;0.30;;;9.40;99.90;;;;;;4973152;28;20201;-61
2024/01/04 10:02:00;;;;;;;1.42;0.35;;;9.50;99.90;;;;;;4972521;28;20232;-60
2024/01/04 10:04:28;;;;;;;1.27;0.30;;;9.50;99.90;;;;;;4973268;28;20295;-60
2024/01/04 10:06:57;;;;;;;0.75;0.40;;;9.50;99.90;;;;;;4973095;28;20629;-60
2024/01/04 10:09:27;;;;;;;0.20;0.20;;;9.40;99.90;;;;;;4972484;28;20624;-61
2024/01/04 10:12:02;;;;;;;2.20;0.30;;;9.50;99.90;;;;;;4973316;28;20236;-60
2024/01/04 10:14:30;;;;;;;1.27;0.32;;;9.50;99.90;;;;;;4972266;28;20204;-61
2024/01/04 10:16:59;;;;;;;1.27;0.30;;;9.60;99.90;;;;;;4972644;28;20212;-61
2024/01/04 10:19:27;;;;;;;1.58;0.30;;;9.60;99.90;;;;;;4972289;28;20243;-61
2024/01/04 10:22:01;;;;;;;0.77;0.40;;;9.70;99.90;;;;;;4973201;28;20232;-61
2024/01/04 10:24:29;;;;;;;2.92;0.65;;;9.80;99.90;;;;;;4973067;28;20213;-61
2024/01/04 10:26:59;;;;;;;2.88;0.63;;;9.80;99.90;;;;;;4972785;28;20205;-61
2024/01/04 10:29:27;;;;;;;1.40;0.50;;;9.80;99.90;;;;;;4973330;28;20220;-61
2024/01/04 10:31:59;;;;;;;3.20;0.60;;;9.80;99.90;;;;;;4973287;28;20232;-61
2024/01/04 10:34:27;;;;;;;3.10;0.68;;;9.80;99.90;;;;;;4973122;28;20267;-61
2024/01/04 10:36:55;;;;;;;1.77;0.68;;;9.80;99.90;;;;;;4972071;28;20602;-61
2024/01/04 10:39:23;;;;;;;3.08;0.50;;;9.80;99.90;;;;;;4973044;28;20300;-61
2024/01/04 10:42:01;;;;;;;2.05;0.63;;;9.80;99.90;;;;;;4973216;28;20284;-61
2024/01/04 10:44:29;;;;;;;2.78;0.63;;;9.70;99.90;;;;;;4971953;28;20577;-61
2024/01/04 10:46:58;;;;;;;3.00;0.50;;;9.70;99.90;;;;;;4973324;28;20634;-63
2024/01/04 10:49:26;;;;;;;3.22;0.55;;;9.70;99.90;;;;;;4972107;28;20225;-61
2024/01/04 10:51:54;;;;;;;0.68;0.40;;;9.70;99.90;;;;;;4972910;28;20797;-61
2024/01/04 10:54:22;;;;;;;0.85;0.50;;;9.80;99.90;;;;;;4974506;28;20200;-61
2024/01/04 10:56:50;;;;;;;1.88;0.75;;;9.70;99.90;;;;;;4973651;28;20208;-61
2024/01/04 10:59:19;;;;;;;2.15;0.75;;;9.70;99.90;;;;;;4976381;28;20205;-61
2024/01/04 11:01:47;;;;;;;4.13;0.68;;;9.80;99.90;;;;;;4972749;28;20295;-61
2024/01/04 11:04:15;;;;;;;3.55;1.10;;;9.80;99.90;;;;;;4973779;28;20310;-61
2024/01/04 11:06:43;;;;;;;2.25;1.17;;;9.80;99.90;;;;;;4977991;28;20658;-61
2024/01/04 11:09:11;;;;;;;1.00;0.50;;;9.90;99.90;;;;;;4970203;28;20311;-61
2024/01/04 11:11:39;;;;;;;1.35;0.50;;;10.00;99.90;;;;;;4972258;28;20782;-61
2024/01/04 11:14:07;;;;;;;2.05;0.55;;;10.00;99.90;;;;;;4972485;28;20212;-61
2024/01/04 11:16:55;;;;;;;3.25;0.88;;;10.00;99.90;;;;;;4976496;28;20627;-61
2024/01/04 11:19:39;;;;;;;0.88;0.40;;;10.00;99.90;;;;;;4974346;28;20209;-62
2024/01/04 11:22:13;;;;;;;3.30;0.88;;;10.00;99.90;;;;;;4972607;28;20620;-62
2024/01/04 11:24:47;;;;;;;4.05;0.60;;;10.00;99.90;;;;;;4972862;28;20232;-62
2024/01/04 11:27:17;;;;;;;5.93;0.80;;;10.00;99.90;;;;;;4968771;28;20243;-62
2024/01/04 11:29:45;;;;;;;6.50;0.80;;;10.00;99.90;;;;;;4971381;28;20233;-62
2024/01/04 11:32:14;;;;;;;4.25;0.90;;;10.10;99.90;;;;;;4972393;28;20252;-62
2024/01/04 11:34:42;;;;;;;5.05;1.23;;;10.00;99.90;;;;;;4971860;28;20220;-62
2024/01/04 11:37:11;;;;;;;4.43;0.77;;;10.10;99.90;;;;;;4972114;28;20208;-62
2024/01/04 11:39:58;;;;;;;7.03;1.30;;;10.10;99.90;;;;;;4973271;28;20216;-62
2024/01/04 11:42:36;;;;;;;4.80;1.20;;;10.20;99.90;;;;;;4971781;28;20228;-62
2024/01/04 11:45:05;;;;;;;6.25;1.17;;;10.30;99.90;;;;;;4972667;28;20208;-62
2024/01/04 11:47:39;;;;;;;8.02;1.30;;;10.40;99.90;;;;;;4972119;28;20256;-62
2024/01/04 11:50:16;;;;;;;5.25;1.52;;;10.60;99.90;;;;;;4971976;28;20739;-62
2024/01/04 11:52:48;;;;;;;5.97;1.42;;;10.70;99.90;;;;;;4971853;28;20327;-62
2024/01/04 11:55:24;;;;;;;8.73;1.30;;;10.90;99.90;;;;;;4971043;28;20643;-62
2024/01/04 11:58:02;;;;;;;5.35;1.25;;;11.00;99.90;;;;;;4974116;28;20216;-62
2024/01/04 12:00:32;;;;;;;5.97;1.10;;;11.10;99.90;;;;;;4971874;28;20239;-62
2024/01/04 12:03:02;;;;;;;7.65;1.38;;;11.20;99.90;;;;;;4970413;28;20217;-62
2024/01/04 12:05:29;;;;;;;5.60;1.40;;;11.10;99.90;;;;;;4969988;28;20205;-65
2024/01/04 12:07:57;;;;;;;6.30;1.23;;;11.10;99.90;;;;;;4971859;28;20667;-62
2024/01/04 12:10:25;;;;;;;5.72;1.00;;;11.00;99.90;;;;;;4971749;28;20866;-61
2024/01/04 12:12:53;;;;;;;4.78;1.20;;;10.90;99.90;;;;;;4969278;28;20248;-62
2024/01/04 12:15:21;;;;;;;6.22;0.95;;;10.90;99.90;;;;;;4971784;28;20300;-61
2024/01/04 12:17:49;;;;;;;6.85;1.38;;;11.00;99.90;;;;;;4969869;28;20219;-61
2024/01/04 12:20:19;;;;;;;6.50;1.35;;;11.10;99.90;;;;;;4969434;28;20646;-61
2024/01/04 12:22:47;;;;;;;4.63;0.85;;;11.20;99.90;;;;;;4971004;28;20564;-62
2024/01/04 12:25:14;;;;;;;4.38;0.80;;;11.20;99.90;;;;;;4972728;28;20658;-61
2024/01/04 12:27:42;;;;;;;5.32;1.10;;;11.20;99.90;;;;;;4974525;28;20558;-61
2024/01/04 12:30:10;;;;;;;5.18;1.10;;;11.20;99.90;;;;;;4975148;28;20289;-62
2024/01/04 12:32:39;;;;;;;5.18;1.30;;;11.20;99.90;;;;;;4975153;28;20360;-61
2024/01/04 12:35:16;;;;;;;2.50;0.65;;;11.20;99.90;;;;;;4975029;28;20717;-63
2024/01/04 12:37:46;;;;;;;7.45;0.70;;;11.10;99.90;;;;;;4974594;28;20591;-61
2024/01/04 12:40:14;;;;;;;5.03;0.95;;;11.00;99.90;;;;;;4974741;28;20725;-63
2024/01/04 12:42:42;;;;;;;5.07;0.85;;;10.90;99.90;;;;;;4974710;28;20738;-63
2024/01/04 12:45:10;;;;;;;5.53;1.00;;;10.80;99.90;;;;;;4974652;28;20243;-63
2024/01/04 12:47:38;;;;;;;2.38;0.60;;;10.80;99.90;;;;;;4973802;28;20273;-63
2024/01/04 12:50:09;;;;;;;2.75;0.50;;;10.80;99.90;;;;;;4975012;28;20236;-62
2024/01/04 12:52:38;;;;;;;2.28;0.52;;;10.80;99.90;;;;;;4974586;28;20590;-60
2024/01/04 12:55:08;;;;;;;1.40;0.47;;;11.10;99.90;;;;;;4973118;28;20271;-59
2024/01/04 12:57:36;;;;;;;6.95;0.77;;;11.20;99.90;;;;;;4974554;28;20650;-60
2024/01/04 13:00:05;;;;;;;2.70;0.80;;;11.40;99.90;;;;;;4975264;28;20243;-60
2024/01/04 13:02:33;;;;;;;6.57;1.08;;;11.40;99.90;;;;;;4974984;28;20267;-60